sensor_id;sensor_type;location;lat;lon;timestamp;P1;durP1;ratioP1;P2;durP2;ratioP2
12076;SDS011;12420;42.676;23.262;2024-02-23T00:01:41;14.10;;;10.23;;
12076;SDS011;12420;42.676;23.262;2024-02-23T00:04:08;12.37;;;9.90;;
12076;SDS011;12420;42.676;23.262;2024-02-23T00:06:36;11.70;;;8.93;;
12076;SDS011;12420;42.676;23.262;2024-02-23T00:09:03;13.67;;;9.60;;
12076;SDS011;12420;42.676;23.262;2024-02-23T00:11:30;15.03;;;10.70;;
12076;SDS011;12420;42.676;23.262;2024-02-23T00:13:58;11.40;;;9.40;;
12076;SDS011;12420;42.676;23.262;2024-02-23T00:16:25;10.13;;;7.87;;
12076;SDS011;12420;42.676;23.262;2024-02-23T00:18:51;10.67;;;8.10;;
12076;SDS011;12420;42.676;23.262;2024-02-23T00:21:18;14.73;;;7.67;;
12076;SDS011;12420;42.676;23.262;2024-02-23T00:23:46;13.13;;;8.87;;
12076;SDS011;12420;42.676;23.262;2024-02-23T00:26:13;9.73;;;7.00;;
12076;SDS011;12420;42.676;23.262;2024-02-23T00:28:39;9.43;;;7.43;;
12076;SDS011;12420;42.676;23.262;2024-02-23T00:31:06;11.97;;;7.83;;
12076;SDS011;12420;42.676;23.262;2024-02-23T00:33:33;9.57;;;6.90;;
12076;SDS011;12420;42.676;23.262;2024-02-23T00:36:00;9.50;;;7.60;;
12076;SDS011;12420;42.676;23.262;2024-02-23T00:38:26;11.93;;;8.47;;
12076;SDS011;12420;42.676;23.262;2024-02-23T00:40:54;12.80;;;8.70;;
12076;SDS011;12420;42.676;23.262;2024-02-23T00:43:21;10.13;;;8.63;;
12076;SDS011;12420;42.676;23.262;2024-02-23T00:45:48;12.43;;;9.33;;
12076;SDS011;12420;42.676;23.262;2024-02-23T00:48:15;12.87;;;9.90;;
12076;SDS011;12420;42.676;23.262;2024-02-23T00:50:41;13.33;;;10.23;;
12076;SDS011;12420;42.676;23.262;2024-02-23T00:53:08;13.90;;;10.43;;
12076;SDS011;12420;42.676;23.262;2024-02-23T00:55:35;12.57;;;10.03;;
12076;SDS011;12420;42.676;23.262;2024-02-23T00:58:03;13.83;;;10.80;;
12076;SDS011;12420;42.676;23.262;2024-02-23T01:00:30;12.73;;;10.97;;
12076;SDS011;12420;42.676;23.262;2024-02-23T01:02:57;13.00;;;9.77;;
12076;SDS011;12420;42.676;23.262;2024-02-23T01:05:25;16.60;;;11.33;;
12076;SDS011;12420;42.676;23.262;2024-02-23T01:07:52;17.37;;;12.97;;
12076;SDS011;12420;42.676;23.262;2024-02-23T01:10:18;13.30;;;10.67;;
12076;SDS011;12420;42.676;23.262;2024-02-23T01:12:45;15.90;;;11.20;;
12076;SDS011;12420;42.676;23.262;2024-02-23T01:15:13;13.67;;;10.73;;
12076;SDS011;12420;42.676;23.262;2024-02-23T01:17:40;13.23;;;10.33;;
12076;SDS011;12420;42.676;23.262;2024-02-23T01:20:07;12.47;;;9.97;;
12076;SDS011;12420;42.676;23.262;2024-02-23T01:22:34;16.77;;;10.33;;
12076;SDS011;12420;42.676;23.262;2024-02-23T01:25:00;14.13;;;10.47;;
12076;SDS011;12420;42.676;23.262;2024-02-23T01:27:27;15.00;;;10.90;;
12076;SDS011;12420;42.676;23.262;2024-02-23T01:29:54;13.43;;;10.30;;
12076;SDS011;12420;42.676;23.262;2024-02-23T01:32:22;15.27;;;10.40;;
12076;SDS011;12420;42.676;23.262;2024-02-23T01:34:49;16.40;;;11.13;;
12076;SDS011;12420;42.676;23.262;2024-02-23T01:37:16;13.93;;;9.97;;
12076;SDS011;12420;42.676;23.262;2024-02-23T01:39:44;13.20;;;10.53;;
12076;SDS011;12420;42.676;23.262;2024-02-23T01:42:12;14.40;;;10.53;;
12076;SDS011;12420;42.676;23.262;2024-02-23T01:44:38;17.00;;;12.77;;
12076;SDS011;12420;42.676;23.262;2024-02-23T01:47:05;13.97;;;11.00;;
12076;SDS011;12420;42.676;23.262;2024-02-23T01:49:33;14.30;;;10.00;;
12076;SDS011;12420;42.676;23.262;2024-02-23T01:52:01;11.70;;;9.10;;
12076;SDS011;12420;42.676;23.262;2024-02-23T01:54:29;14.03;;;9.07;;
12076;SDS011;12420;42.676;23.262;2024-02-23T01:56:57;11.33;;;8.87;;
12076;SDS011;12420;42.676;23.262;2024-02-23T01:59:24;10.90;;;8.57;;
12076;SDS011;12420;42.676;23.262;2024-02-23T02:01:54;13.23;;;8.90;;
12076;SDS011;12420;42.676;23.262;2024-02-23T02:04:23;13.40;;;8.77;;
12076;SDS011;12420;42.676;23.262;2024-02-23T02:06:53;13.63;;;9.23;;
12076;SDS011;12420;42.676;23.262;2024-02-23T02:09:20;13.23;;;9.63;;
12076;SDS011;12420;42.676;23.262;2024-02-23T02:11:50;10.67;;;8.97;;
12076;SDS011;12420;42.676;23.262;2024-02-23T02:14:17;10.83;;;9.40;;
12076;SDS011;12420;42.676;23.262;2024-02-23T02:16:45;10.93;;;8.87;;
12076;SDS011;12420;42.676;23.262;2024-02-23T02:19:12;12.27;;;8.80;;
12076;SDS011;12420;42.676;23.262;2024-02-23T02:21:39;10.77;;;8.83;;
12076;SDS011;12420;42.676;23.262;2024-02-23T02:24:08;11.10;;;9.23;;
12076;SDS011;12420;42.676;23.262;2024-02-23T02:26:35;13.83;;;11.07;;
12076;SDS011;12420;42.676;23.262;2024-02-23T02:29:03;16.83;;;11.63;;
12076;SDS011;12420;42.676;23.262;2024-02-23T02:31:30;13.07;;;9.93;;
12076;SDS011;12420;42.676;23.262;2024-02-23T02:34:02;12.43;;;10.20;;
12076;SDS011;12420;42.676;23.262;2024-02-23T02:36:29;13.63;;;9.37;;
12076;SDS011;12420;42.676;23.262;2024-02-23T02:38:56;11.87;;;9.70;;
12076;SDS011;12420;42.676;23.262;2024-02-23T02:41:24;11.60;;;9.30;;
12076;SDS011;12420;42.676;23.262;2024-02-23T02:43:55;12.40;;;9.10;;
12076;SDS011;12420;42.676;23.262;2024-02-23T02:46:22;13.20;;;8.33;;
12076;SDS011;12420;42.676;23.262;2024-02-23T02:48:48;14.00;;;9.13;;
12076;SDS011;12420;42.676;23.262;2024-02-23T02:51:15;12.40;;;9.33;;
12076;SDS011;12420;42.676;23.262;2024-02-23T02:53:42;12.07;;;9.23;;
12076;SDS011;12420;42.676;23.262;2024-02-23T02:56:09;12.53;;;9.43;;
12076;SDS011;12420;42.676;23.262;2024-02-23T02:58:37;11.33;;;9.20;;
12076;SDS011;12420;42.676;23.262;2024-02-23T03:01:03;12.07;;;8.57;;
12076;SDS011;12420;42.676;23.262;2024-02-23T03:03:31;10.93;;;8.83;;
12076;SDS011;12420;42.676;23.262;2024-02-23T03:05:57;12.17;;;8.40;;
12076;SDS011;12420;42.676;23.262;2024-02-23T03:08:24;11.67;;;8.53;;
12076;SDS011;12420;42.676;23.262;2024-02-23T03:10:51;10.37;;;8.60;;
12076;SDS011;12420;42.676;23.262;2024-02-23T03:13:22;12.80;;;8.97;;
12076;SDS011;12420;42.676;23.262;2024-02-23T03:15:51;12.00;;;8.70;;
12076;SDS011;12420;42.676;23.262;2024-02-23T03:18:18;12.73;;;9.90;;
12076;SDS011;12420;42.676;23.262;2024-02-23T03:20:46;11.50;;;8.80;;
12076;SDS011;12420;42.676;23.262;2024-02-23T03:23:15;10.23;;;8.77;;
12076;SDS011;12420;42.676;23.262;2024-02-23T03:25:42;10.77;;;8.50;;
12076;SDS011;12420;42.676;23.262;2024-02-23T03:28:09;10.20;;;8.97;;
12076;SDS011;12420;42.676;23.262;2024-02-23T03:30:36;11.27;;;9.33;;
12076;SDS011;12420;42.676;23.262;2024-02-23T03:33:04;13.57;;;9.57;;
12076;SDS011;12420;42.676;23.262;2024-02-23T03:35:31;12.27;;;9.40;;
12076;SDS011;12420;42.676;23.262;2024-02-23T03:37:58;14.63;;;9.80;;
12076;SDS011;12420;42.676;23.262;2024-02-23T03:40:24;11.60;;;9.37;;
12076;SDS011;12420;42.676;23.262;2024-02-23T03:42:51;10.77;;;9.03;;
12076;SDS011;12420;42.676;23.262;2024-02-23T03:45:18;12.50;;;10.07;;
12076;SDS011;12420;42.676;23.262;2024-02-23T03:47:45;14.60;;;10.10;;
12076;SDS011;12420;42.676;23.262;2024-02-23T03:50:14;15.37;;;9.50;;
12076;SDS011;12420;42.676;23.262;2024-02-23T03:52:42;14.83;;;9.63;;
12076;SDS011;12420;42.676;23.262;2024-02-23T03:55:09;13.13;;;9.87;;
12076;SDS011;12420;42.676;23.262;2024-02-23T03:57:36;12.70;;;9.53;;
12076;SDS011;12420;42.676;23.262;2024-02-23T04:00:03;12.33;;;9.67;;
12076;SDS011;12420;42.676;23.262;2024-02-23T04:02:32;15.33;;;9.80;;
12076;SDS011;12420;42.676;23.262;2024-02-23T04:05:00;13.10;;;9.87;;
12076;SDS011;12420;42.676;23.262;2024-02-23T04:07:28;12.60;;;9.83;;
12076;SDS011;12420;42.676;23.262;2024-02-23T04:09:55;15.37;;;10.80;;
12076;SDS011;12420;42.676;23.262;2024-02-23T04:12:21;15.13;;;10.70;;
12076;SDS011;12420;42.676;23.262;2024-02-23T04:14:48;14.77;;;10.57;;
12076;SDS011;12420;42.676;23.262;2024-02-23T04:17:15;15.67;;;11.27;;
12076;SDS011;12420;42.676;23.262;2024-02-23T04:19:42;14.10;;;10.93;;
12076;SDS011;12420;42.676;23.262;2024-02-23T04:22:09;15.40;;;12.20;;
12076;SDS011;12420;42.676;23.262;2024-02-23T04:24:37;14.03;;;9.83;;
12076;SDS011;12420;42.676;23.262;2024-02-23T04:27:05;19.73;;;13.33;;
12076;SDS011;12420;42.676;23.262;2024-02-23T04:29:32;18.83;;;12.23;;
12076;SDS011;12420;42.676;23.262;2024-02-23T04:31:59;16.53;;;12.00;;
12076;SDS011;12420;42.676;23.262;2024-02-23T04:34:26;14.40;;;10.90;;
12076;SDS011;12420;42.676;23.262;2024-02-23T04:36:53;12.83;;;9.77;;
12076;SDS011;12420;42.676;23.262;2024-02-23T04:39:20;11.67;;;9.00;;
12076;SDS011;12420;42.676;23.262;2024-02-23T04:41:49;11.40;;;9.57;;
12076;SDS011;12420;42.676;23.262;2024-02-23T04:44:15;10.50;;;9.10;;
12076;SDS011;12420;42.676;23.262;2024-02-23T04:46:42;11.80;;;9.20;;
12076;SDS011;12420;42.676;23.262;2024-02-23T04:49:10;12.10;;;9.83;;
12076;SDS011;12420;42.676;23.262;2024-02-23T04:51:38;14.13;;;10.53;;
12076;SDS011;12420;42.676;23.262;2024-02-23T04:54:04;15.23;;;10.40;;
12076;SDS011;12420;42.676;23.262;2024-02-23T04:56:32;14.63;;;10.47;;
12076;SDS011;12420;42.676;23.262;2024-02-23T04:59:01;13.30;;;10.27;;
12076;SDS011;12420;42.676;23.262;2024-02-23T05:01:28;11.00;;;9.40;;
12076;SDS011;12420;42.676;23.262;2024-02-23T05:03:55;12.00;;;9.63;;
12076;SDS011;12420;42.676;23.262;2024-02-23T05:06:22;17.77;;;9.77;;
12076;SDS011;12420;42.676;23.262;2024-02-23T05:08:49;12.70;;;8.93;;
12076;SDS011;12420;42.676;23.262;2024-02-23T05:11:16;16.40;;;12.10;;
12076;SDS011;12420;42.676;23.262;2024-02-23T05:13:42;15.20;;;11.73;;
12076;SDS011;12420;42.676;23.262;2024-02-23T05:16:11;13.53;;;10.27;;
12076;SDS011;12420;42.676;23.262;2024-02-23T05:18:39;18.23;;;12.47;;
12076;SDS011;12420;42.676;23.262;2024-02-23T05:21:07;14.33;;;10.87;;
12076;SDS011;12420;42.676;23.262;2024-02-23T05:23:34;13.97;;;10.10;;
12076;SDS011;12420;42.676;23.262;2024-02-23T05:26:01;13.17;;;10.63;;
12076;SDS011;12420;42.676;23.262;2024-02-23T05:28:28;14.63;;;11.20;;
12076;SDS011;12420;42.676;23.262;2024-02-23T05:30:55;13.20;;;11.10;;
12076;SDS011;12420;42.676;23.262;2024-02-23T05:33:23;19.83;;;11.37;;
12076;SDS011;12420;42.676;23.262;2024-02-23T05:35:50;14.40;;;11.83;;
12076;SDS011;12420;42.676;23.262;2024-02-23T05:38:17;14.47;;;11.07;;
12076;SDS011;12420;42.676;23.262;2024-02-23T05:40:44;14.47;;;12.17;;
12076;SDS011;12420;42.676;23.262;2024-02-23T05:43:11;15.53;;;11.23;;
12076;SDS011;12420;42.676;23.262;2024-02-23T05:45:38;13.53;;;9.60;;
12076;SDS011;12420;42.676;23.262;2024-02-23T05:48:05;19.73;;;11.33;;
12076;SDS011;12420;42.676;23.262;2024-02-23T05:50:34;14.70;;;9.97;;
12076;SDS011;12420;42.676;23.262;2024-02-23T05:53:01;13.20;;;9.07;;
12076;SDS011;12420;42.676;23.262;2024-02-23T05:55:29;13.90;;;10.70;;
12076;SDS011;12420;42.676;23.262;2024-02-23T05:57:56;17.57;;;12.60;;
12076;SDS011;12420;42.676;23.262;2024-02-23T06:00:23;12.43;;;10.57;;
12076;SDS011;12420;42.676;23.262;2024-02-23T06:02:50;11.93;;;9.87;;
12076;SDS011;12420;42.676;23.262;2024-02-23T06:05:18;13.37;;;9.43;;
12076;SDS011;12420;42.676;23.262;2024-02-23T06:07:47;12.63;;;9.43;;
12076;SDS011;12420;42.676;23.262;2024-02-23T06:10:13;17.27;;;10.97;;
12076;SDS011;12420;42.676;23.262;2024-02-23T06:12:40;13.33;;;10.97;;
12076;SDS011;12420;42.676;23.262;2024-02-23T06:15:08;19.10;;;12.33;;
12076;SDS011;12420;42.676;23.262;2024-02-23T06:17:35;14.97;;;11.50;;
12076;SDS011;12420;42.676;23.262;2024-02-23T06:20:02;13.90;;;10.93;;
12076;SDS011;12420;42.676;23.262;2024-02-23T06:22:30;18.40;;;10.17;;
12076;SDS011;12420;42.676;23.262;2024-02-23T06:24:59;22.30;;;11.20;;
12076;SDS011;12420;42.676;23.262;2024-02-23T06:27:25;13.13;;;11.23;;
12076;SDS011;12420;42.676;23.262;2024-02-23T06:29:52;17.00;;;11.10;;
12076;SDS011;12420;42.676;23.262;2024-02-23T06:32:20;13.57;;;10.93;;
12076;SDS011;12420;42.676;23.262;2024-02-23T06:34:47;13.47;;;10.03;;
12076;SDS011;12420;42.676;23.262;2024-02-23T06:37:15;12.00;;;9.63;;
12076;SDS011;12420;42.676;23.262;2024-02-23T06:39:42;16.10;;;10.07;;
12076;SDS011;12420;42.676;23.262;2024-02-23T06:42:12;12.93;;;9.57;;
12076;SDS011;12420;42.676;23.262;2024-02-23T06:44:39;13.77;;;10.57;;
12076;SDS011;12420;42.676;23.262;2024-02-23T06:47:06;11.77;;;10.30;;
12076;SDS011;12420;42.676;23.262;2024-02-23T06:49:33;12.87;;;11.00;;
12076;SDS011;12420;42.676;23.262;2024-02-23T06:52:00;14.20;;;9.97;;
12076;SDS011;12420;42.676;23.262;2024-02-23T06:54:27;25.30;;;11.23;;
12076;SDS011;12420;42.676;23.262;2024-02-23T06:56:54;14.17;;;10.10;;
12076;SDS011;12420;42.676;23.262;2024-02-23T06:59:22;12.50;;;9.90;;
12076;SDS011;12420;42.676;23.262;2024-02-23T07:01:49;11.70;;;10.50;;
12076;SDS011;12420;42.676;23.262;2024-02-23T07:04:16;12.37;;;9.77;;
12076;SDS011;12420;42.676;23.262;2024-02-23T07:06:43;16.10;;;10.40;;
12076;SDS011;12420;42.676;23.262;2024-02-23T07:09:10;11.77;;;10.00;;
12076;SDS011;12420;42.676;23.262;2024-02-23T07:11:36;22.13;;;10.50;;
12076;SDS011;12420;42.676;23.262;2024-02-23T07:14:03;12.40;;;10.27;;
12076;SDS011;12420;42.676;23.262;2024-02-23T07:16:31;14.77;;;10.07;;
12076;SDS011;12420;42.676;23.262;2024-02-23T07:18:58;12.67;;;10.07;;
12076;SDS011;12420;42.676;23.262;2024-02-23T07:21:25;13.93;;;10.20;;
12076;SDS011;12420;42.676;23.262;2024-02-23T07:23:51;14.80;;;10.63;;
12076;SDS011;12420;42.676;23.262;2024-02-23T07:26:18;15.50;;;10.17;;
12076;SDS011;12420;42.676;23.262;2024-02-23T07:28:47;13.77;;;10.23;;
12076;SDS011;12420;42.676;23.262;2024-02-23T07:31:14;13.40;;;10.50;;
12076;SDS011;12420;42.676;23.262;2024-02-23T07:33:42;17.63;;;11.13;;
12076;SDS011;12420;42.676;23.262;2024-02-23T07:36:13;17.13;;;11.33;;
12076;SDS011;12420;42.676;23.262;2024-02-23T07:38:40;16.60;;;10.50;;
12076;SDS011;12420;42.676;23.262;2024-02-23T07:41:09;14.97;;;10.73;;
12076;SDS011;12420;42.676;23.262;2024-02-23T07:43:36;14.47;;;11.37;;
12076;SDS011;12420;42.676;23.262;2024-02-23T07:46:03;16.47;;;10.73;;
12076;SDS011;12420;42.676;23.262;2024-02-23T07:48:30;16.33;;;11.30;;
12076;SDS011;12420;42.676;23.262;2024-02-23T07:50:58;15.40;;;10.97;;
12076;SDS011;12420;42.676;23.262;2024-02-23T07:53:25;16.93;;;11.37;;
12076;SDS011;12420;42.676;23.262;2024-02-23T07:55:51;14.53;;;10.97;;
12076;SDS011;12420;42.676;23.262;2024-02-23T07:58:18;14.23;;;11.43;;
12076;SDS011;12420;42.676;23.262;2024-02-23T08:00:46;18.87;;;12.00;;
12076;SDS011;12420;42.676;23.262;2024-02-23T08:03:13;17.97;;;11.50;;
12076;SDS011;12420;42.676;23.262;2024-02-23T08:05:39;20.53;;;12.10;;
12076;SDS011;12420;42.676;23.262;2024-02-23T08:08:08;21.00;;;13.07;;
12076;SDS011;12420;42.676;23.262;2024-02-23T08:10:34;15.67;;;12.30;;
12076;SDS011;12420;42.676;23.262;2024-02-23T08:13:01;17.90;;;12.93;;
12076;SDS011;12420;42.676;23.262;2024-02-23T08:15:28;20.77;;;13.60;;
12076;SDS011;12420;42.676;23.262;2024-02-23T08:17:54;17.13;;;13.30;;
12076;SDS011;12420;42.676;23.262;2024-02-23T08:20:21;20.60;;;13.30;;
12076;SDS011;12420;42.676;23.262;2024-02-23T08:22:48;19.37;;;13.57;;
12076;SDS011;12420;42.676;23.262;2024-02-23T08:25:16;20.30;;;13.43;;
12076;SDS011;12420;42.676;23.262;2024-02-23T08:27:43;24.23;;;13.13;;
12076;SDS011;12420;42.676;23.262;2024-02-23T08:30:10;21.37;;;12.87;;
12076;SDS011;12420;42.676;23.262;2024-02-23T08:32:37;16.27;;;11.17;;
12076;SDS011;12420;42.676;23.262;2024-02-23T08:35:04;21.53;;;12.77;;
12076;SDS011;12420;42.676;23.262;2024-02-23T08:37:31;19.73;;;11.27;;
12076;SDS011;12420;42.676;23.262;2024-02-23T08:39:58;14.93;;;11.57;;
12076;SDS011;12420;42.676;23.262;2024-02-23T08:42:26;16.83;;;11.37;;
12076;SDS011;12420;42.676;23.262;2024-02-23T08:44:52;17.90;;;11.33;;
12076;SDS011;12420;42.676;23.262;2024-02-23T08:47:20;19.40;;;11.77;;
12076;SDS011;12420;42.676;23.262;2024-02-23T08:49:46;13.67;;;9.70;;
12076;SDS011;12420;42.676;23.262;2024-02-23T08:52:13;16.53;;;10.63;;
12076;SDS011;12420;42.676;23.262;2024-02-23T08:54:40;11.23;;;9.10;;
12076;SDS011;12420;42.676;23.262;2024-02-23T08:57:07;11.73;;;9.60;;
12076;SDS011;12420;42.676;23.262;2024-02-23T08:59:35;13.20;;;9.53;;
12076;SDS011;12420;42.676;23.262;2024-02-23T09:02:02;13.37;;;9.17;;
12076;SDS011;12420;42.676;23.262;2024-02-23T09:04:28;12.40;;;8.57;;
12076;SDS011;12420;42.676;23.262;2024-02-23T09:06:57;8.57;;;6.47;;
12076;SDS011;12420;42.676;23.262;2024-02-23T09:09:27;8.53;;;6.37;;
12076;SDS011;12420;42.676;23.262;2024-02-23T09:11:56;8.87;;;6.93;;
12076;SDS011;12420;42.676;23.262;2024-02-23T09:14:24;9.90;;;6.53;;
12076;SDS011;12420;42.676;23.262;2024-02-23T09:16:53;8.90;;;6.47;;
12076;SDS011;12420;42.676;23.262;2024-02-23T09:19:19;9.43;;;6.33;;
12076;SDS011;12420;42.676;23.262;2024-02-23T09:21:46;7.63;;;5.97;;
12076;SDS011;12420;42.676;23.262;2024-02-23T09:24:13;7.57;;;5.87;;
12076;SDS011;12420;42.676;23.262;2024-02-23T09:26:40;8.37;;;5.37;;
12076;SDS011;12420;42.676;23.262;2024-02-23T09:29:07;7.70;;;4.90;;
12076;SDS011;12420;42.676;23.262;2024-02-23T09:31:34;5.60;;;4.57;;
12076;SDS011;12420;42.676;23.262;2024-02-23T09:34:02;4.50;;;4.10;;
12076;SDS011;12420;42.676;23.262;2024-02-23T09:36:29;5.17;;;4.67;;
12076;SDS011;12420;42.676;23.262;2024-02-23T09:38:56;5.23;;;4.40;;
12076;SDS011;12420;42.676;23.262;2024-02-23T09:41:23;6.47;;;4.53;;
12076;SDS011;12420;42.676;23.262;2024-02-23T09:43:50;4.40;;;4.00;;
12076;SDS011;12420;42.676;23.262;2024-02-23T09:46:17;4.50;;;4.07;;
12076;SDS011;12420;42.676;23.262;2024-02-23T09:48:45;6.57;;;4.20;;
12076;SDS011;12420;42.676;23.262;2024-02-23T09:51:15;6.70;;;4.13;;
12076;SDS011;12420;42.676;23.262;2024-02-23T09:53:42;4.20;;;3.80;;
12076;SDS011;12420;42.676;23.262;2024-02-23T09:56:10;6.90;;;4.10;;
12076;SDS011;12420;42.676;23.262;2024-02-23T09:58:37;6.77;;;4.30;;
12076;SDS011;12420;42.676;23.262;2024-02-23T10:01:05;6.77;;;4.10;;
12076;SDS011;12420;42.676;23.262;2024-02-23T10:03:32;4.00;;;3.60;;
12076;SDS011;12420;42.676;23.262;2024-02-23T10:05:59;3.50;;;3.20;;
12076;SDS011;12420;42.676;23.262;2024-02-23T10:08:27;3.60;;;3.20;;
12076;SDS011;12420;42.676;23.262;2024-02-23T10:10:54;3.23;;;3.03;;
12076;SDS011;12420;42.676;23.262;2024-02-23T10:13:22;3.20;;;3.00;;
12076;SDS011;12420;42.676;23.262;2024-02-23T10:15:50;4.30;;;3.10;;
12076;SDS011;12420;42.676;23.262;2024-02-23T10:18:17;3.43;;;3.13;;
12076;SDS011;12420;42.676;23.262;2024-02-23T10:20:44;4.63;;;3.40;;
12076;SDS011;12420;42.676;23.262;2024-02-23T10:23:11;3.83;;;3.23;;
12076;SDS011;12420;42.676;23.262;2024-02-23T10:25:39;5.43;;;3.10;;
12076;SDS011;12420;42.676;23.262;2024-02-23T10:28:06;3.13;;;2.83;;
12076;SDS011;12420;42.676;23.262;2024-02-23T10:30:36;2.80;;;2.40;;
12076;SDS011;12420;42.676;23.262;2024-02-23T10:33:03;3.27;;;2.60;;
12076;SDS011;12420;42.676;23.262;2024-02-23T10:35:31;3.50;;;2.20;;
12076;SDS011;12420;42.676;23.262;2024-02-23T10:38:00;3.00;;;2.40;;
12076;SDS011;12420;42.676;23.262;2024-02-23T10:40:28;2.63;;;2.43;;
12076;SDS011;12420;42.676;23.262;2024-02-23T10:43:00;2.67;;;2.47;;
12076;SDS011;12420;42.676;23.262;2024-02-23T10:45:32;1.90;;;1.80;;
12076;SDS011;12420;42.676;23.262;2024-02-23T10:48:01;2.07;;;1.97;;
12076;SDS011;12420;42.676;23.262;2024-02-23T10:50:28;2.63;;;2.43;;
12076;SDS011;12420;42.676;23.262;2024-02-23T10:52:57;4.00;;;2.27;;
12076;SDS011;12420;42.676;23.262;2024-02-23T10:55:25;2.70;;;2.50;;
12076;SDS011;12420;42.676;23.262;2024-02-23T10:57:53;3.10;;;2.50;;
12076;SDS011;12420;42.676;23.262;2024-02-23T11:00:24;2.50;;;2.40;;
12076;SDS011;12420;42.676;23.262;2024-02-23T11:02:51;2.20;;;2.10;;
12076;SDS011;12420;42.676;23.262;2024-02-23T11:05:20;2.13;;;2.03;;
12076;SDS011;12420;42.676;23.262;2024-02-23T11:07:49;5.03;;;2.40;;
12076;SDS011;12420;42.676;23.262;2024-02-23T11:10:16;3.67;;;2.40;;
12076;SDS011;12420;42.676;23.262;2024-02-23T11:12:44;6.10;;;2.60;;
12076;SDS011;12420;42.676;23.262;2024-02-23T11:15:25;2.60;;;2.40;;
12076;SDS011;12420;42.676;23.262;2024-02-23T11:17:53;2.10;;;2.00;;
12076;SDS011;12420;42.676;23.262;2024-02-23T11:20:21;2.07;;;1.97;;
12076;SDS011;12420;42.676;23.262;2024-02-23T11:22:51;3.87;;;2.00;;
12076;SDS011;12420;42.676;23.262;2024-02-23T11:25:19;2.00;;;1.90;;
12076;SDS011;12420;42.676;23.262;2024-02-23T11:27:48;1.97;;;1.87;;
12076;SDS011;12420;42.676;23.262;2024-02-23T11:30:16;5.63;;;2.10;;
12076;SDS011;12420;42.676;23.262;2024-02-23T11:32:45;7.77;;;2.00;;
12076;SDS011;12420;42.676;23.262;2024-02-23T11:35:13;2.70;;;2.00;;
12076;SDS011;12420;42.676;23.262;2024-02-23T11:37:47;2.10;;;2.00;;
12076;SDS011;12420;42.676;23.262;2024-02-23T11:40:22;3.03;;;2.00;;
12076;SDS011;12420;42.676;23.262;2024-02-23T11:42:49;2.00;;;1.87;;
12076;SDS011;12420;42.676;23.262;2024-02-23T11:45:17;2.30;;;1.83;;
12076;SDS011;12420;42.676;23.262;2024-02-23T11:47:45;2.90;;;2.00;;
12076;SDS011;12420;42.676;23.262;2024-02-23T11:50:13;8.67;;;2.20;;
12076;SDS011;12420;42.676;23.262;2024-02-23T11:52:40;2.53;;;2.33;;
12076;SDS011;12420;42.676;23.262;2024-02-23T11:55:08;1.80;;;1.70;;
12076;SDS011;12420;42.676;23.262;2024-02-23T11:57:35;7.17;;;2.20;;
12076;SDS011;12420;42.676;23.262;2024-02-23T12:00:02;2.50;;;2.10;;
12076;SDS011;12420;42.676;23.262;2024-02-23T12:02:29;2.10;;;2.00;;
12076;SDS011;12420;42.676;23.262;2024-02-23T12:04:57;2.57;;;2.00;;
12076;SDS011;12420;42.676;23.262;2024-02-23T12:07:24;3.30;;;1.90;;
12076;SDS011;12420;42.676;23.262;2024-02-23T12:09:51;2.63;;;2.00;;
12076;SDS011;12420;42.676;23.262;2024-02-23T12:12:18;2.33;;;2.00;;
12076;SDS011;12420;42.676;23.262;2024-02-23T12:14:45;3.13;;;2.20;;
12076;SDS011;12420;42.676;23.262;2024-02-23T12:17:12;2.87;;;2.10;;
12076;SDS011;12420;42.676;23.262;2024-02-23T12:19:41;2.23;;;1.93;;
12076;SDS011;12420;42.676;23.262;2024-02-23T12:22:11;2.87;;;1.77;;
12076;SDS011;12420;42.676;23.262;2024-02-23T12:24:37;1.77;;;1.67;;
12076;SDS011;12420;42.676;23.262;2024-02-23T12:27:06;2.50;;;2.00;;
12076;SDS011;12420;42.676;23.262;2024-02-23T12:29:33;2.10;;;2.00;;
12076;SDS011;12420;42.676;23.262;2024-02-23T12:32:03;2.30;;;2.07;;
12076;SDS011;12420;42.676;23.262;2024-02-23T12:34:30;2.17;;;2.00;;
12076;SDS011;12420;42.676;23.262;2024-02-23T12:36:57;1.90;;;1.80;;
12076;SDS011;12420;42.676;23.262;2024-02-23T12:39:25;5.73;;;2.17;;
12076;SDS011;12420;42.676;23.262;2024-02-23T12:41:52;5.23;;;1.93;;
12076;SDS011;12420;42.676;23.262;2024-02-23T12:44:18;3.37;;;2.03;;
12076;SDS011;12420;42.676;23.262;2024-02-23T12:46:45;2.47;;;1.83;;
12076;SDS011;12420;42.676;23.262;2024-02-23T12:49:12;2.87;;;2.10;;
12076;SDS011;12420;42.676;23.262;2024-02-23T12:51:39;4.13;;;1.90;;
12076;SDS011;12420;42.676;23.262;2024-02-23T12:54:06;3.80;;;2.07;;
12076;SDS011;12420;42.676;23.262;2024-02-23T12:56:34;2.70;;;2.20;;
12076;SDS011;12420;42.676;23.262;2024-02-23T12:59:01;3.07;;;2.07;;
12076;SDS011;12420;42.676;23.262;2024-02-23T13:01:27;2.00;;;1.90;;
12076;SDS011;12420;42.676;23.262;2024-02-23T13:03:57;2.40;;;2.20;;
12076;SDS011;12420;42.676;23.262;2024-02-23T13:06:23;2.40;;;1.80;;
12076;SDS011;12420;42.676;23.262;2024-02-23T13:08:50;7.93;;;1.97;;
12076;SDS011;12420;42.676;23.262;2024-02-23T13:11:17;1.93;;;1.83;;
12076;SDS011;12420;42.676;23.262;2024-02-23T13:13:46;2.00;;;1.90;;
12076;SDS011;12420;42.676;23.262;2024-02-23T13:16:13;2.00;;;1.90;;
12076;SDS011;12420;42.676;23.262;2024-02-23T13:18:40;2.67;;;1.80;;
12076;SDS011;12420;42.676;23.262;2024-02-23T13:21:06;3.43;;;1.77;;
12076;SDS011;12420;42.676;23.262;2024-02-23T13:23:33;2.17;;;1.97;;
12076;SDS011;12420;42.676;23.262;2024-02-23T13:26:01;3.30;;;1.90;;
12076;SDS011;12420;42.676;23.262;2024-02-23T13:28:28;2.40;;;2.20;;
12076;SDS011;12420;42.676;23.262;2024-02-23T13:30:56;2.70;;;2.03;;
12076;SDS011;12420;42.676;23.262;2024-02-23T13:33:23;2.93;;;2.10;;
12076;SDS011;12420;42.676;23.262;2024-02-23T13:35:50;2.57;;;1.90;;
12076;SDS011;12420;42.676;23.262;2024-02-23T13:38:18;1.90;;;1.80;;
12076;SDS011;12420;42.676;23.262;2024-02-23T13:40:45;3.70;;;2.20;;
12076;SDS011;12420;42.676;23.262;2024-02-23T13:43:12;2.93;;;2.13;;
12076;SDS011;12420;42.676;23.262;2024-02-23T13:45:47;5.63;;;2.10;;
12076;SDS011;12420;42.676;23.262;2024-02-23T13:48:16;1.90;;;1.80;;
12076;SDS011;12420;42.676;23.262;2024-02-23T13:50:44;1.97;;;1.87;;
12076;SDS011;12420;42.676;23.262;2024-02-23T13:53:11;3.73;;;1.90;;
12076;SDS011;12420;42.676;23.262;2024-02-23T13:55:38;4.03;;;2.00;;
12076;SDS011;12420;42.676;23.262;2024-02-23T13:58:05;3.27;;;2.10;;
12076;SDS011;12420;42.676;23.262;2024-02-23T14:00:32;3.90;;;2.00;;
12076;SDS011;12420;42.676;23.262;2024-02-23T14:02:58;2.37;;;1.80;;
12076;SDS011;12420;42.676;23.262;2024-02-23T14:05:26;1.73;;;1.63;;
12076;SDS011;12420;42.676;23.262;2024-02-23T14:07:53;1.80;;;1.70;;
12076;SDS011;12420;42.676;23.262;2024-02-23T14:10:20;3.80;;;2.10;;
12076;SDS011;12420;42.676;23.262;2024-02-23T14:12:48;2.13;;;2.03;;
12076;SDS011;12420;42.676;23.262;2024-02-23T14:15:15;2.63;;;2.00;;
12076;SDS011;12420;42.676;23.262;2024-02-23T14:17:42;1.80;;;1.70;;
12076;SDS011;12420;42.676;23.262;2024-02-23T14:20:09;2.10;;;2.00;;
12076;SDS011;12420;42.676;23.262;2024-02-23T14:22:38;2.37;;;2.20;;